sensor_id;sensor_type;location;lat;lon;timestamp;temperature;humidity
10312;DHT22;5201;48.776;9.128;2024-03-07T00:02:19;7.70;99.90
10312;DHT22;5201;48.776;9.128;2024-03-07T00:04:44;7.80;99.90
10312;DHT22;5201;48.776;9.128;2024-03-07T00:07:10;7.90;99.90
10312;DHT22;5201;48.776;9.128;2024-03-07T00:09:36;7.70;99.90
10312;DHT22;5201;48.776;9.128;2024-03-07T00:12:02;7.50;99.90
10312;DHT22;5201;48.776;9.128;2024-03-07T00:14:28;7.60;99.90
10312;DHT22;5201;48.776;9.128;2024-03-07T00:16:57;7.60;99.90
10312;DHT22;5201;48.776;9.128;2024-03-07T00:19:24;6.40;99.90
10312;DHT22;5201;48.776;9.128;2024-03-07T00:21:58;7.60;99.90
10312;DHT22;5201;48.776;9.128;2024-03-07T00:24:24;7.60;99.90
10312;DHT22;5201;48.776;9.128;2024-03-07T00:26:50;7.50;99.90
10312;DHT22;5201;48.776;9.128;2024-03-07T00:29:17;7.50;99.90
10312;DHT22;5201;48.776;9.128;2024-03-07T00:31:46;7.50;99.90
10312;DHT22;5201;48.776;9.128;2024-03-07T00:34:15;7.50;99.90
10312;DHT22;5201;48.776;9.128;2024-03-07T00:36:45;7.30;99.90
10312;DHT22;5201;48.776;9.128;2024-03-07T00:39:12;7.20;99.90
10312;DHT22;5201;48.776;9.128;2024-03-07T00:41:40;7.40;99.90
10312;DHT22;5201;48.776;9.128;2024-03-07T00:44:07;8.10;99.90
10312;DHT22;5201;48.776;9.128;2024-03-07T00:46:37;7.50;99.90
10312;DHT22;5201;48.776;9.128;2024-03-07T00:49:04;7.50;99.90
10312;DHT22;5201;48.776;9.128;2024-03-07T00:51:30;7.50;99.90
10312;DHT22;5201;48.776;9.128;2024-03-07T00:53:56;7.60;99.90
10312;DHT22;5201;48.776;9.128;2024-03-07T00:56:23;7.70;99.90
10312;DHT22;5201;48.776;9.128;2024-03-07T00:58:50;7.50;99.90
10312;DHT22;5201;48.776;9.128;2024-03-07T01:01:15;7.50;99.90
10312;DHT22;5201;48.776;9.128;2024-03-07T01:03:41;7.60;99.90
10312;DHT22;5201;48.776;9.128;2024-03-07T01:06:07;7.80;99.90
10312;DHT22;5201;48.776;9.128;2024-03-07T01:08:35;7.70;99.90
10312;DHT22;5201;48.776;9.128;2024-03-07T01:11:05;7.60;99.90
10312;DHT22;5201;48.776;9.128;2024-03-07T01:13:38;7.50;99.90
10312;DHT22;5201;48.776;9.128;2024-03-07T01:16:05;7.50;99.90
10312;DHT22;5201;48.776;9.128;2024-03-07T01:18:31;7.50;99.90
10312;DHT22;5201;48.776;9.128;2024-03-07T01:21:00;7.30;99.90
10312;DHT22;5201;48.776;9.128;2024-03-07T01:23:26;7.40;99.90
10312;DHT22;5201;48.776;9.128;2024-03-07T01:25:55;7.20;99.90
10312;DHT22;5201;48.776;9.128;2024-03-07T01:28:22;7.10;99.90
10312;DHT22;5201;48.776;9.128;2024-03-07T01:30:51;7.10;99.90
10312;DHT22;5201;48.776;9.128;2024-03-07T01:33:18;7.00;99.90
10312;DHT22;5201;48.776;9.128;2024-03-07T01:35:44;7.00;99.90
10312;DHT22;5201;48.776;9.128;2024-03-07T01:38:11;6.90;99.90
10312;DHT22;5201;48.776;9.128;2024-03-07T01:40:39;6.80;99.90
10312;DHT22;5201;48.776;9.128;2024-03-07T01:43:05;7.50;99.90
10312;DHT22;5201;48.776;9.128;2024-03-07T01:45:31;6.60;99.90
10312;DHT22;5201;48.776;9.128;2024-03-07T01:47:57;6.70;99.90
10312;DHT22;5201;48.776;9.128;2024-03-07T01:50:23;6.80;99.90
10312;DHT22;5201;48.776;9.128;2024-03-07T01:52:50;6.60;99.90
10312;DHT22;5201;48.776;9.128;2024-03-07T01:55:17;6.60;99.90
10312;DHT22;5201;48.776;9.128;2024-03-07T01:57:43;6.50;99.90
10312;DHT22;5201;48.776;9.128;2024-03-07T02:00:11;6.60;99.90
10312;DHT22;5201;48.776;9.128;2024-03-07T02:02:36;6.60;99.90
10312;DHT22;5201;48.776;9.128;2024-03-07T02:05:03;6.60;99.90
10312;DHT22;5201;48.776;9.128;2024-03-07T02:07:29;6.60;99.90
10312;DHT22;5201;48.776;9.128;2024-03-07T02:10:05;6.50;99.90
10312;DHT22;5201;48.776;9.128;2024-03-07T02:12:31;6.40;99.90
10312;DHT22;5201;48.776;9.128;2024-03-07T02:14:57;6.40;99.90
10312;DHT22;5201;48.776;9.128;2024-03-07T02:17:26;6.30;99.90
10312;DHT22;5201;48.776;9.128;2024-03-07T02:19:52;6.30;99.90
10312;DHT22;5201;48.776;9.128;2024-03-07T02:22:18;6.20;99.90
10312;DHT22;5201;48.776;9.128;2024-03-07T02:24:45;6.20;99.90
10312;DHT22;5201;48.776;9.128;2024-03-07T02:27:11;6.20;99.90
10312;DHT22;5201;48.776;9.128;2024-03-07T02:29:37;6.40;99.90
10312;DHT22;5201;48.776;9.128;2024-03-07T02:32:03;6.30;99.90
10312;DHT22;5201;48.776;9.128;2024-03-07T02:34:29;6.20;99.90
10312;DHT22;5201;48.776;9.128;2024-03-07T02:36:55;6.30;99.90
10312;DHT22;5201;48.776;9.128;2024-03-07T02:39:21;6.40;99.90
10312;DHT22;5201;48.776;9.128;2024-03-07T02:41:47;6.30;99.90
10312;DHT22;5201;48.776;9.128;2024-03-07T02:44:15;6.30;99.90
10312;DHT22;5201;48.776;9.128;2024-03-07T02:46:41;6.30;99.90
10312;DHT22;5201;48.776;9.128;2024-03-07T02:49:06;6.30;99.90
10312;DHT22;5201;48.776;9.128;2024-03-07T02:51:32;6.30;99.90
10312;DHT22;5201;48.776;9.128;2024-03-07T02:53:58;6.30;99.90
10312;DHT22;5201;48.776;9.128;2024-03-07T02:56:24;6.30;99.90
10312;DHT22;5201;48.776;9.128;2024-03-07T02:58:50;6.20;99.90
10312;DHT22;5201;48.776;9.128;2024-03-07T03:01:16;6.20;99.90
10312;DHT22;5201;48.776;9.128;2024-03-07T03:03:42;6.20;99.90
10312;DHT22;5201;48.776;9.128;2024-03-07T03:06:08;6.20;99.90
10312;DHT22;5201;48.776;9.128;2024-03-07T03:08:34;6.20;99.90
10312;DHT22;5201;48.776;9.128;2024-03-07T03:11:00;6.10;99.90
10312;DHT22;5201;48.776;9.128;2024-03-07T03:13:26;6.00;99.90
10312;DHT22;5201;48.776;9.128;2024-03-07T03:15:56;6.00;99.90
10312;DHT22;5201;48.776;9.128;2024-03-07T03:18:24;6.00;99.90
10312;DHT22;5201;48.776;9.128;2024-03-07T03:20:50;6.00;99.90
10312;DHT22;5201;48.776;9.128;2024-03-07T03:23:18;6.00;99.90
10312;DHT22;5201;48.776;9.128;2024-03-07T03:25:44;6.00;99.90
10312;DHT22;5201;48.776;9.128;2024-03-07T03:28:10;6.00;99.90
10312;DHT22;5201;48.776;9.128;2024-03-07T03:30:38;5.90;99.90
10312;DHT22;5201;48.776;9.128;2024-03-07T03:33:07;5.80;99.90
10312;DHT22;5201;48.776;9.128;2024-03-07T03:35:36;5.70;99.90
10312;DHT22;5201;48.776;9.128;2024-03-07T03:38:02;5.80;99.90
10312;DHT22;5201;48.776;9.128;2024-03-07T03:40:28;5.70;99.90
10312;DHT22;5201;48.776;9.128;2024-03-07T03:42:54;5.70;99.90
10312;DHT22;5201;48.776;9.128;2024-03-07T03:45:19;5.60;99.90
10312;DHT22;5201;48.776;9.128;2024-03-07T03:47:45;5.50;99.90
10312;DHT22;5201;48.776;9.128;2024-03-07T03:50:12;5.40;99.90
10312;DHT22;5201;48.776;9.128;2024-03-07T03:52:39;5.40;99.90
10312;DHT22;5201;48.776;9.128;2024-03-07T03:55:06;5.40;99.90
10312;DHT22;5201;48.776;9.128;2024-03-07T03:57:32;5.30;99.90
10312;DHT22;5201;48.776;9.128;2024-03-07T04:00:02;5.40;99.90
10312;DHT22;5201;48.776;9.128;2024-03-07T04:02:38;5.40;99.90
10312;DHT22;5201;48.776;9.128;2024-03-07T04:05:04;5.40;99.90
10312;DHT22;5201;48.776;9.128;2024-03-07T04:07:30;5.40;99.90
10312;DHT22;5201;48.776;9.128;2024-03-07T04:09:56;5.40;99.90
10312;DHT22;5201;48.776;9.128;2024-03-07T04:12:23;5.40;99.90
10312;DHT22;5201;48.776;9.128;2024-03-07T04:14:51;5.50;99.90
10312;DHT22;5201;48.776;9.128;2024-03-07T04:17:17;5.30;99.90
10312;DHT22;5201;48.776;9.128;2024-03-07T04:19:42;5.20;99.90
10312;DHT22;5201;48.776;9.128;2024-03-07T04:22:09;5.20;99.90
10312;DHT22;5201;48.776;9.128;2024-03-07T04:24:35;5.20;99.90
10312;DHT22;5201;48.776;9.128;2024-03-07T04:27:04;5.20;99.90
10312;DHT22;5201;48.776;9.128;2024-03-07T04:29:31;5.30;99.90
10312;DHT22;5201;48.776;9.128;2024-03-07T04:31:58;5.30;99.90
10312;DHT22;5201;48.776;9.128;2024-03-07T04:34:23;5.30;99.90
10312;DHT22;5201;48.776;9.128;2024-03-07T04:36:49;6.00;99.90
10312;DHT22;5201;48.776;9.128;2024-03-07T04:39:15;5.20;99.90
10312;DHT22;5201;48.776;9.128;2024-03-07T04:41:59;4.90;99.90
10312;DHT22;5201;48.776;9.128;2024-03-07T04:44:30;5.50;99.90
10312;DHT22;5201;48.776;9.128;2024-03-07T04:46:56;4.70;99.90
10312;DHT22;5201;48.776;9.128;2024-03-07T04:49:23;4.60;99.90
10312;DHT22;5201;48.776;9.128;2024-03-07T04:51:55;4.70;99.90
10312;DHT22;5201;48.776;9.128;2024-03-07T04:54:22;4.70;99.90
10312;DHT22;5201;48.776;9.128;2024-03-07T04:56:49;4.80;99.90
10312;DHT22;5201;48.776;9.128;2024-03-07T04:59:15;4.80;99.90
10312;DHT22;5201;48.776;9.128;2024-03-07T05:01:44;4.90;99.90
10312;DHT22;5201;48.776;9.128;2024-03-07T05:04:12;4.90;99.90
10312;DHT22;5201;48.776;9.128;2024-03-07T05:06:39;4.90;99.90
10312;DHT22;5201;48.776;9.128;2024-03-07T05:09:07;4.90;99.90
10312;DHT22;5201;48.776;9.128;2024-03-07T05:11:34;4.90;99.90
10312;DHT22;5201;48.776;9.128;2024-03-07T05:14:00;4.80;99.90
10312;DHT22;5201;48.776;9.128;2024-03-07T05:16:27;4.80;99.90
10312;DHT22;5201;48.776;9.128;2024-03-07T05:18:53;4.80;99.90
10312;DHT22;5201;48.776;9.128;2024-03-07T05:21:19;4.80;99.90
10312;DHT22;5201;48.776;9.128;2024-03-07T05:24:06;4.80;99.90
10312;DHT22;5201;48.776;9.128;2024-03-07T05:26:34;4.60;99.90
10312;DHT22;5201;48.776;9.128;2024-03-07T05:29:04;4.50;99.90
10312;DHT22;5201;48.776;9.128;2024-03-07T05:31:38;4.40;99.90
10312;DHT22;5201;48.776;9.128;2024-03-07T05:34:09;4.20;99.90
10312;DHT22;5201;48.776;9.128;2024-03-07T05:36:35;4.20;99.90
10312;DHT22;5201;48.776;9.128;2024-03-07T05:39:02;4.20;99.90
10312;DHT22;5201;48.776;9.128;2024-03-07T05:41:34;4.30;99.90
10312;DHT22;5201;48.776;9.128;2024-03-07T05:44:00;4.40;99.90
10312;DHT22;5201;48.776;9.128;2024-03-07T05:46:25;4.30;99.90
10312;DHT22;5201;48.776;9.128;2024-03-07T05:48:51;4.30;99.90
10312;DHT22;5201;48.776;9.128;2024-03-07T05:51:22;4.20;99.90
10312;DHT22;5201;48.776;9.128;2024-03-07T05:53:48;4.20;99.90
10312;DHT22;5201;48.776;9.128;2024-03-07T05:56:13;4.10;99.90
10312;DHT22;5201;48.776;9.128;2024-03-07T05:58:39;4.20;99.90
10312;DHT22;5201;48.776;9.128;2024-03-07T06:01:05;4.20;99.90
10312;DHT22;5201;48.776;9.128;2024-03-07T06:03:31;4.20;99.90
10312;DHT22;5201;48.776;9.128;2024-03-07T06:05:57;4.00;99.90
10312;DHT22;5201;48.776;9.128;2024-03-07T06:08:23;3.90;99.90
10312;DHT22;5201;48.776;9.128;2024-03-07T06:10:48;3.70;99.90
10312;DHT22;5201;48.776;9.128;2024-03-07T06:13:16;3.70;99.90
10312;DHT22;5201;48.776;9.128;2024-03-07T06:15:46;3.80;99.90
10312;DHT22;5201;48.776;9.128;2024-03-07T06:18:13;4.00;99.90
10312;DHT22;5201;48.776;9.128;2024-03-07T06:20:40;4.10;99.90
10312;DHT22;5201;48.776;9.128;2024-03-07T06:23:06;4.20;99.90
10312;DHT22;5201;48.776;9.128;2024-03-07T06:25:32;4.20;99.90
10312;DHT22;5201;48.776;9.128;2024-03-07T06:28:13;4.20;99.90
10312;DHT22;5201;48.776;9.128;2024-03-07T06:30:40;4.20;99.90
10312;DHT22;5201;48.776;9.128;2024-03-07T06:33:06;4.30;99.90
10312;DHT22;5201;48.776;9.128;2024-03-07T06:35:32;4.30;99.90
10312;DHT22;5201;48.776;9.128;2024-03-07T06:38:02;4.30;99.90
10312;DHT22;5201;48.776;9.128;2024-03-07T06:40:28;4.30;99.90
10312;DHT22;5201;48.776;9.128;2024-03-07T06:42:55;4.10;99.90
10312;DHT22;5201;48.776;9.128;2024-03-07T06:45:20;4.10;99.90
10312;DHT22;5201;48.776;9.128;2024-03-07T06:47:46;4.30;99.90
10312;DHT22;5201;48.776;9.128;2024-03-07T06:50:12;4.20;99.90
10312;DHT22;5201;48.776;9.128;2024-03-07T06:52:42;6.20;99.90
10312;DHT22;5201;48.776;9.128;2024-03-07T06:55:10;4.30;99.90
10312;DHT22;5201;48.776;9.128;2024-03-07T06:57:36;4.50;99.90
10312;DHT22;5201;48.776;9.128;2024-03-07T07:00:02;4.00;99.90
10312;DHT22;5201;48.776;9.128;2024-03-07T07:02:37;4.00;99.90
10312;DHT22;5201;48.776;9.128;2024-03-07T07:05:03;3.90;99.90
10312;DHT22;5201;48.776;9.128;2024-03-07T07:07:32;4.00;99.90
10312;DHT22;5201;48.776;9.128;2024-03-07T07:10:01;4.00;99.90
10312;DHT22;5201;48.776;9.128;2024-03-07T07:12:27;4.00;99.90
10312;DHT22;5201;48.776;9.128;2024-03-07T07:14:54;4.00;99.90
10312;DHT22;5201;48.776;9.128;2024-03-07T07:17:19;4.30;99.90
10312;DHT22;5201;48.776;9.128;2024-03-07T07:19:45;4.50;99.90
10312;DHT22;5201;48.776;9.128;2024-03-07T07:22:11;4.50;99.90
10312;DHT22;5201;48.776;9.128;2024-03-07T07:24:38;4.60;99.90
10312;DHT22;5201;48.776;9.128;2024-03-07T07:27:03;4.80;99.90
10312;DHT22;5201;48.776;9.128;2024-03-07T07:29:29;4.80;99.90
10312;DHT22;5201;48.776;9.128;2024-03-07T07:31:55;4.60;99.90
10312;DHT22;5201;48.776;9.128;2024-03-07T07:34:21;4.40;99.90
10312;DHT22;5201;48.776;9.128;2024-03-07T07:36:47;4.30;99.90
10312;DHT22;5201;48.776;9.128;2024-03-07T07:39:13;4.50;99.90
10312;DHT22;5201;48.776;9.128;2024-03-07T07:41:42;4.60;99.90
10312;DHT22;5201;48.776;9.128;2024-03-07T07:44:08;5.30;99.90
10312;DHT22;5201;48.776;9.128;2024-03-07T07:46:34;4.80;99.90
10312;DHT22;5201;48.776;9.128;2024-03-07T07:49:01;5.30;99.90
10312;DHT22;5201;48.776;9.128;2024-03-07T07:51:27;5.10;99.90
10312;DHT22;5201;48.776;9.128;2024-03-07T07:53:53;4.60;99.90
10312;DHT22;5201;48.776;9.128;2024-03-07T07:56:22;4.60;99.90
10312;DHT22;5201;48.776;9.128;2024-03-07T07:58:48;4.50;99.90
10312;DHT22;5201;48.776;9.128;2024-03-07T08:01:14;4.60;99.90
10312;DHT22;5201;48.776;9.128;2024-03-07T08:03:43;4.60;99.90
10312;DHT22;5201;48.776;9.128;2024-03-07T08:06:09;4.70;99.90
10312;DHT22;5201;48.776;9.128;2024-03-07T08:08:35;5.60;99.90
10312;DHT22;5201;48.776;9.128;2024-03-07T08:11:01;5.00;99.90
10312;DHT22;5201;48.776;9.128;2024-03-07T08:13:26;4.90;99.90
10312;DHT22;5201;48.776;9.128;2024-03-07T08:15:52;4.90;99.90
10312;DHT22;5201;48.776;9.128;2024-03-07T08:18:19;4.60;99.90
10312;DHT22;5201;48.776;9.128;2024-03-07T08:20:46;4.80;99.90
10312;DHT22;5201;48.776;9.128;2024-03-07T08:23:11;4.90;99.90
10312;DHT22;5201;48.776;9.128;2024-03-07T08:25:38;5.10;99.90
10312;DHT22;5201;48.776;9.128;2024-03-07T08:28:07;5.20;99.90
10312;DHT22;5201;48.776;9.128;2024-03-07T08:30:33;5.10;99.90
10312;DHT22;5201;48.776;9.128;2024-03-07T08:33:00;5.40;99.90
10312;DHT22;5201;48.776;9.128;2024-03-07T08:35:28;5.00;99.90
10312;DHT22;5201;48.776;9.128;2024-03-07T08:37:55;5.70;99.90
10312;DHT22;5201;48.776;9.128;2024-03-07T08:40:22;4.90;99.90
10312;DHT22;5201;48.776;9.128;2024-03-07T08:42:50;4.90;99.90
10312;DHT22;5201;48.776;9.128;2024-03-07T08:45:17;5.00;99.90
10312;DHT22;5201;48.776;9.128;2024-03-07T08:47:51;4.90;99.90
10312;DHT22;5201;48.776;9.128;2024-03-07T08:50:17;4.90;99.90
10312;DHT22;5201;48.776;9.128;2024-03-07T08:52:48;4.80;99.90
10312;DHT22;5201;48.776;9.128;2024-03-07T08:55:22;6.80;99.90
10312;DHT22;5201;48.776;9.128;2024-03-07T08:57:48;5.00;99.90
10312;DHT22;5201;48.776;9.128;2024-03-07T09:00:15;5.00;99.90
10312;DHT22;5201;48.776;9.128;2024-03-07T09:02:54;5.10;99.90
10312;DHT22;5201;48.776;9.128;2024-03-07T09:05:21;5.20;99.90
10312;DHT22;5201;48.776;9.128;2024-03-07T09:07:48;5.40;99.90
10312;DHT22;5201;48.776;9.128;2024-03-07T09:10:14;5.50;99.90
10312;DHT22;5201;48.776;9.128;2024-03-07T09:12:46;5.50;99.90
10312;DHT22;5201;48.776;9.128;2024-03-07T09:15:15;5.60;99.90
10312;DHT22;5201;48.776;9.128;2024-03-07T09:17:42;5.60;99.90
10312;DHT22;5201;48.776;9.128;2024-03-07T09:20:08;5.50;99.90
10312;DHT22;5201;48.776;9.128;2024-03-07T09:22:46;5.50;99.90
10312;DHT22;5201;48.776;9.128;2024-03-07T09:25:13;5.60;99.90
10312;DHT22;5201;48.776;9.128;2024-03-07T09:27:39;5.60;99.90
10312;DHT22;5201;48.776;9.128;2024-03-07T09:30:07;5.80;99.90
10312;DHT22;5201;48.776;9.128;2024-03-07T09:32:40;6.00;99.90
10312;DHT22;5201;48.776;9.128;2024-03-07T09:35:08;6.30;99.90
10312;DHT22;5201;48.776;9.128;2024-03-07T09:37:38;6.40;99.90
10312;DHT22;5201;48.776;9.128;2024-03-07T09:40:05;6.50;99.90
10312;DHT22;5201;48.776;9.128;2024-03-07T09:42:31;6.60;99.90
10312;DHT22;5201;48.776;9.128;2024-03-07T09:44:59;7.20;99.90
10312;DHT22;5201;48.776;9.128;2024-03-07T09:47:27;6.40;99.90
10312;DHT22;5201;48.776;9.128;2024-03-07T09:49:53;6.60;99.90
10312;DHT22;5201;48.776;9.128;2024-03-07T09:52:19;6.50;99.90
10312;DHT22;5201;48.776;9.128;2024-03-07T09:54:46;6.30;99.90
10312;DHT22;5201;48.776;9.128;2024-03-07T09:57:13;6.50;99.90
10312;DHT22;5201;48.776;9.128;2024-03-07T09:59:41;6.60;99.90
10312;DHT22;5201;48.776;9.128;2024-03-07T10:02:09;6.70;99.90
10312;DHT22;5201;48.776;9.128;2024-03-07T10:04:42;6.60;99.90
10312;DHT22;5201;48.776;9.128;2024-03-07T10:07:11;6.70;99.90
10312;DHT22;5201;48.776;9.128;2024-03-07T10:09:39;6.70;99.90
10312;DHT22;5201;48.776;9.128;2024-03-07T10:12:06;6.40;99.90
10312;DHT22;5201;48.776;9.128;2024-03-07T10:14:35;6.40;99.90
10312;DHT22;5201;48.776;9.128;2024-03-07T10:17:02;6.50;99.90
10312;DHT22;5201;48.776;9.128;2024-03-07T10:19:29;7.00;99.90
10312;DHT22;5201;48.776;9.128;2024-03-07T10:21:56;6.90;99.90
10312;DHT22;5201;48.776;9.128;2024-03-07T10:24:27;7.20;99.90
10312;DHT22;5201;48.776;9.128;2024-03-07T10:26:53;7.50;99.90
10312;DHT22;5201;48.776;9.128;2024-03-07T10:29:22;7.50;99.90
10312;DHT22;5201;48.776;9.128;2024-03-07T10:31:49;7.50;99.90
10312;DHT22;5201;48.776;9.128;2024-03-07T10:34:15;7.50;99.90
10312;DHT22;5201;48.776;9.128;2024-03-07T10:36:46;7.40;99.90
10312;DHT22;5201;48.776;9.128;2024-03-07T10:39:12;7.50;99.90
10312;DHT22;5201;48.776;9.128;2024-03-07T10:41:45;7.50;99.90
10312;DHT22;5201;48.776;9.128;2024-03-07T10:44:28;7.60;99.90
10312;DHT22;5201;48.776;9.128;2024-03-07T10:46:56;7.50;99.90
10312;DHT22;5201;48.776;9.128;2024-03-07T10:49:26;7.60;99.90
10312;DHT22;5201;48.776;9.128;2024-03-07T10:52:09;7.50;99.90
10312;DHT22;5201;48.776;9.128;2024-03-07T10:55:00;7.70;99.90
10312;DHT22;5201;48.776;9.128;2024-03-07T11:00:09;7.90;99.90
10312;DHT22;5201;48.776;9.128;2024-03-07T11:02:54;7.80;99.90
10312;DHT22;5201;48.776;9.128;2024-03-07T11:05:21;6.90;99.90
10312;DHT22;5201;48.776;9.128;2024-03-07T11:07:50;7.50;99.90
10312;DHT22;5201;48.776;9.128;2024-03-07T11:10:18;7.40;99.90
10312;DHT22;5201;48.776;9.128;2024-03-07T11:12:45;7.30;99.90
10312;DHT22;5201;48.776;9.128;2024-03-07T11:15:13;7.30;99.90
10312;DHT22;5201;48.776;9.128;2024-03-07T11:17:47;7.30;99.90
10312;DHT22;5201;48.776;9.128;2024-03-07T11:20:22;7.40;99.90
10312;DHT22;5201;48.776;9.128;2024-03-07T11:22:48;7.60;99.90
10312;DHT22;5201;48.776;9.128;2024-03-07T11:25:17;7.60;99.90
10312;DHT22;5201;48.776;9.128;2024-03-07T11:27:51;7.60;99.90
10312;DHT22;5201;48.776;9.128;2024-03-07T11:30:19;7.60;99.90
10312;DHT22;5201;48.776;9.128;2024-03-07T11:32:46;7.40;99.90
10312;DHT22;5201;48.776;9.128;2024-03-07T11:35:14;9.20;99.90
10312;DHT22;5201;48.776;9.128;2024-03-07T11:37:44;7.40;99.90
10312;DHT22;5201;48.776;9.128;2024-03-07T11:42:52;7.40;99.90
10312;DHT22;5201;48.776;9.128;2024-03-07T11:45:20;7.50;99.90
10312;DHT22;5201;48.776;9.128;2024-03-07T11:47:55;7.70;99.90
10312;DHT22;5201;48.776;9.128;2024-03-07T11:50:33;7.50;99.90
10312;DHT22;5201;48.776;9.128;2024-03-07T11:53:01;7.60;99.90
10312;DHT22;5201;48.776;9.128;2024-03-07T11:55:28;7.90;99.90
10312;DHT22;5201;48.776;9.128;2024-03-07T12:00:45;7.70;99.90
10312;DHT22;5201;48.776;9.128;2024-03-07T12:03:15;7.80;99.90
10312;DHT22;5201;48.776;9.128;2024-03-07T12:05:47;7.80;99.90
10312;DHT22;5201;48.776;9.128;2024-03-07T12:08:12;7.70;99.90
10312;DHT22;5201;48.776;9.128;2024-03-07T12:10:39;7.80;99.90
10312;DHT22;5201;48.776;9.128;2024-03-07T12:13:12;7.70;99.90
10312;DHT22;5201;48.776;9.128;2024-03-07T12:15:41;7.60;99.90
10312;DHT22;5201;48.776;9.128;2024-03-07T12:18:09;7.80;99.90
10312;DHT22;5201;48.776;9.128;2024-03-07T12:20:39;7.80;99.90
10312;DHT22;5201;48.776;9.128;2024-03-07T12:23:07;7.70;99.90
10312;DHT22;5201;48.776;9.128;2024-03-07T12:25:38;7.50;99.90
10312;DHT22;5201;48.776;9.128;2024-03-07T12:28:08;7.60;99.90
10312;DHT22;5201;48.776;9.128;2024-03-07T12:30:54;7.60;99.90
10312;DHT22;5201;48.776;9.128;2024-03-07T12:33:23;7.60;99.90
10312;DHT22;5201;48.776;9.128;2024-03-07T12:35:52;8.30;99.90
10312;DHT22;5201;48.776;9.128;2024-03-07T12:38:21;7.80;99.90
10312;DHT22;5201;48.776;9.128;2024-03-07T12:41:02;7.90;99.90
10312;DHT22;5201;48.776;9.128;2024-03-07T12:43:32;7.60;99.90
10312;DHT22;5201;48.776;9.128;2024-03-07T12:45:58;7.50;99.90
10312;DHT22;5201;48.776;9.128;2024-03-07T12:48:24;7.60;99.90
10312;DHT22;5201;48.776;9.128;2024-03-07T12:50:51;7.80;99.90
10312;DHT22;5201;48.776;9.128;2024-03-07T12:53:21;7.70;99.90
10312;DHT22;5201;48.776;9.128;2024-03-07T12:55:48;7.60;99.90
10312;DHT22;5201;48.776;9.128;2024-03-07T12:58:13;8.20;99.90
10312;DHT22;5201;48.776;9.128;2024-03-07T13:00:41;7.60;99.90
10312;DHT22;5201;48.776;9.128;2024-03-07T13:03:07;7.60;99.90
10312;DHT22;5201;48.776;9.128;2024-03-07T13:05:36;7.40;99.90
10312;DHT22;5201;48.776;9.128;2024-03-07T13:08:06;7.60;99.90
10312;DHT22;5201;48.776;9.128;2024-03-07T13:10:37;7.50;99.90
10312;DHT22;5201;48.776;9.128;2024-03-07T13:13:03;7.70;99.90
10312;DHT22;5201;48.776;9.128;2024-03-07T13:15:30;7.80;99.90
10312;DHT22;5201;48.776;9.128;2024-03-07T13:17:58;8.30;99.90
10312;DHT22;5201;48.776;9.128;2024-03-07T13:20:25;7.90;99.90
10312;DHT22;5201;48.776;9.128;2024-03-07T13:22:52;9.00;99.90
10312;DHT22;5201;48.776;9.128;2024-03-07T13:25:23;7.90;99.90
10312;DHT22;5201;48.776;9.128;2024-03-07T13:28:07;7.90;99.90
10312;DHT22;5201;48.776;9.128;2024-03-07T13:30:34;8.00;99.90
10312;DHT22;5201;48.776;9.128;2024-03-07T13:33:02;8.00;99.90
10312;DHT22;5201;48.776;9.128;2024-03-07T13:35:31;7.90;99.90
10312;DHT22;5201;48.776;9.128;2024-03-07T13:37:57;8.00;99.90
10312;DHT22;5201;48.776;9.128;2024-03-07T13:40:24;7.90;99.90
10312;DHT22;5201;48.776;9.128;2024-03-07T13:42:59;8.00;99.90
10312;DHT22;5201;48.776;9.128;2024-03-07T13:45:29;8.00;99.90
10312;DHT22;5201;48.776;9.128;2024-03-07T13:48:04;8.10;99.90
10312;DHT22;5201;48.776;9.128;2024-03-07T13:50:32;8.10;99.90
10312;DHT22;5201;48.776;9.128;2024-03-07T13:52:58;8.00;99.90
10312;DHT22;5201;48.776;9.128;2024-03-07T14:27:24;8.00;99.90
10312;DHT22;5201;48.776;9.128;2024-03-07T14:32:39;7.80;99.90
10312;DHT22;5201;48.776;9.128;2024-03-07T14:40:46;8.00;99.90
10312;DHT22;5201;48.776;9.128;2024-03-07T14:43:15;8.10;99.90
10312;DHT22;5201;48.776;9.128;2024-03-07T14:45:42;8.10;99.90
10312;DHT22;5201;48.776;9.128;2024-03-07T14:48:09;8.00;99.90
10312;DHT22;5201;48.776;9.128;2024-03-07T14:50:40;8.00;99.90
10312;DHT22;5201;48.776;9.128;2024-03-07T14:53:06;8.00;99.90
10312;DHT22;5201;48.776;9.128;2024-03-07T14:55:32;8.20;99.90
10312;DHT22;5201;48.776;9.128;2024-03-07T14:57:59;8.20;99.90
10312;DHT22;5201;48.776;9.128;2024-03-07T15:00:25;8.20;99.90
10312;DHT22;5201;48.776;9.128;2024-03-07T15:02:55;8.30;99.90
10312;DHT22;5201;48.776;9.128;2024-03-07T15:05:25;8.70;99.90
10312;DHT22;5201;48.776;9.128;2024-03-07T15:07:52;8.20;99.90
10312;DHT22;5201;48.776;9.128;2024-03-07T15:10:32;8.30;99.90
10312;DHT22;5201;48.776;9.128;2024-03-07T15:12:59;8.30;99.90
10312;DHT22;5201;48.776;9.128;2024-03-07T15:15:25;8.20;99.90
10312;DHT22;5201;48.776;9.128;2024-03-07T15:17:53;8.40;99.90
10312;DHT22;5201;48.776;9.128;2024-03-07T15:20:19;8.30;99.90
10312;DHT22;5201;48.776;9.128;2024-03-07T15:22:54;8.30;99.90
10312;DHT22;5201;48.776;9.128;2024-03-07T15:25:24;8.40;99.90
10312;DHT22;5201;48.776;9.128;2024-03-07T15:27:51;8.30;99.90
10312;DHT22;5201;48.776;9.128;2024-03-07T15:30:17;8.20;99.90
10312;DHT22;5201;48.776;9.128;2024-03-07T15:32:43;8.20;99.90
10312;DHT22;5201;48.776;9.128;2024-03-07T15:35:10;8.20;99.90
10312;DHT22;5201;48.776;9.128;2024-03-07T15:37:48;8.30;99.90
10312;DHT22;5201;48.776;9.128;2024-03-07T15:40:16;8.30;99.90
10312;DHT22;5201;48.776;9.128;2024-03-07T15:42:44;8.80;99.90
10312;DHT22;5201;48.776;9.128;2024-03-07T15:45:16;8.30;99.90
10312;DHT22;5201;48.776;9.128;2024-03-07T15:47:46;8.20;99.90
10312;DHT22;5201;48.776;9.128;2024-03-07T15:50:13;8.20;99.90
10312;DHT22;5201;48.776;9.128;2024-03-07T15:52:42;8.20;99.90
10312;DHT22;5201;48.776;9.128;2024-03-07T15:55:11;8.70;99.90
10312;DHT22;5201;48.776;9.128;2024-03-07T15:57:47;8.20;99.90
10312;DHT22;5201;48.776;9.128;2024-03-07T16:00:19;8.20;99.90
10312;DHT22;5201;48.776;9.128;2024-03-07T16:05:26;8.30;99.90
10312;DHT22;5201;48.776;9.128;2024-03-07T16:07:54;8.50;99.90
10312;DHT22;5201;48.776;9.128;2024-03-07T16:10:22;8.50;99.90
10312;DHT22;5201;48.776;9.128;2024-03-07T16:12:53;8.60;99.90
10312;DHT22;5201;48.776;9.128;2024-03-07T16:15:20;8.40;99.90
10312;DHT22;5201;48.776;9.128;2024-03-07T16:17:47;8.30;99.90
10312;DHT22;5201;48.776;9.128;2024-03-07T16:20:13;8.40;99.90
10312;DHT22;5201;48.776;9.128;2024-03-07T16:22:42;8.40;99.90
10312;DHT22;5201;48.776;9.128;2024-03-07T16:25:09;8.50;99.90
10312;DHT22;5201;48.776;9.128;2024-03-07T16:27:39;8.20;99.90
10312;DHT22;5201;48.776;9.128;2024-03-07T16:32:39;8.00;99.90
10312;DHT22;5201;48.776;9.128;2024-03-07T16:35:06;8.00;99.90
10312;DHT22;5201;48.776;9.128;2024-03-07T16:37:42;8.00;99.90
10312;DHT22;5201;48.776;9.128;2024-03-07T16:40:09;8.00;99.90
10312;DHT22;5201;48.776;9.128;2024-03-07T16:42:37;8.00;99.90
10312;DHT22;5201;48.776;9.128;2024-03-07T16:45:12;7.90;99.90
10312;DHT22;5201;48.776;9.128;2024-03-07T16:47:42;8.00;99.90
10312;DHT22;5201;48.776;9.128;2024-03-07T16:50:08;8.00;99.90
10312;DHT22;5201;48.776;9.128;2024-03-07T16:52:35;7.90;99.90
10312;DHT22;5201;48.776;9.128;2024-03-07T16:55:02;8.10;99.90
10312;DHT22;5201;48.776;9.128;2024-03-07T16:57:28;8.20;99.90
10312;DHT22;5201;48.776;9.128;2024-03-07T16:59:53;8.20;99.90
10312;DHT22;5201;48.776;9.128;2024-03-07T17:02:19;8.30;99.90